Time;durP1;ratioP1;P1;durP2;ratioP2;P2;SDS_P1;SDS_P2;PMS_P1;PMS_P2;Temp;Humidity;BMP_temperature;BMP_pressure;BME280_temperature;BME280_humidity;BME280_pressure;Samples;Min_cycle;Max_cycle;Signal;HPM_P1;HPM_P2
2022/09/13 00:00:40;;;;;;;10.98;4.32;;;22.50;70.90;;;;;;5071911;28;20052;-67
2022/09/13 00:03:06;;;;;;;7.13;4.45;;;22.50;70.90;;;;;;5071819;28;20102;-67
2022/09/13 00:05:32;;;;;;;8.07;4.47;;;22.50;70.90;;;;;;5070988;28;20045;-67
2022/09/13 00:08:00;;;;;;;8.32;4.88;;;22.60;70.90;;;;;;5071648;28;20039;-67
2022/09/13 00:10:29;;;;;;;7.05;4.50;;;22.50;70.90;;;;;;5070330;28;20129;-67
2022/09/13 00:12:55;;;;;;;6.65;4.20;;;22.50;70.90;;;;;;5071248;28;20040;-67
2022/09/13 00:15:20;;;;;;;7.10;4.35;;;22.50;70.90;;;;;;5071126;28;20093;-67
2022/09/13 00:17:46;;;;;;;7.35;4.43;;;22.50;70.90;;;;;;5071642;28;20049;-67
2022/09/13 00:20:12;;;;;;;7.45;4.53;;;22.50;70.90;;;;;;5070592;28;20140;-67
2022/09/13 00:22:37;;;;;;;8.48;4.50;;;22.50;70.90;;;;;;5071636;28;20041;-67
2022/09/13 00:25:04;;;;;;;9.85;5.25;;;22.50;70.80;;;;;;5071309;28;20037;-67
2022/09/13 00:27:31;;;;;;;8.13;4.55;;;22.50;70.80;;;;;;5070797;28;20163;-68
2022/09/13 00:29:56;;;;;;;7.07;4.60;;;22.50;70.80;;;;;;5056275;28;20055;-67
2022/09/13 00:32:22;;;;;;;5.55;3.90;;;22.50;70.80;;;;;;5074460;28;20036;-67
2022/09/13 00:34:50;;;;;;;7.30;4.38;;;22.50;70.80;;;;;;5075459;28;20044;-68
2022/09/13 00:37:16;;;;;;;7.88;4.30;;;22.50;70.80;;;;;;5075083;28;20040;-68
2022/09/13 00:39:41;;;;;;;7.95;4.50;;;22.50;70.80;;;;;;5074589;28;20045;-68
2022/09/13 00:42:13;;;;;;;10.57;4.50;;;22.50;70.80;;;;;;5074826;28;20045;-68
2022/09/13 00:44:57;;;;;;;7.88;4.40;;;22.50;70.80;;;;;;5056807;28;20055;-68
2022/09/13 00:47:51;;;;;;;6.85;4.28;;;22.50;70.80;;;;;;5074027;28;20086;-68
2022/09/13 00:50:33;;;;;;;9.35;4.60;;;22.50;70.80;;;;;;5058738;28;20060;-67
2022/09/13 00:53:21;;;;;;;7.63;4.47;;;22.50;71.50;;;;;;5056974;28;20103;-66
2022/09/13 00:55:47;;;;;;;;;;;22.50;70.80;;;;;;5075551;28;20044;-67
2022/09/13 00:58:21;;;;;;;6.88;4.05;;;22.40;70.80;;;;;;5074476;28;20324;-67
2022/09/13 01:00:46;;;;;;;8.05;4.47;;;22.40;70.80;;;;;;5056113;28;20090;-67
2022/09/13 01:03:13;;;;;;;7.88;4.00;;;22.40;70.80;;;;;;5074631;28;20032;-67
2022/09/13 01:05:59;;;;;;;7.10;3.95;;;22.40;70.80;;;;;;5074815;28;20052;-68
2022/09/13 01:08:28;;;;;;;7.35;4.20;;;22.40;70.70;;;;;;5073447;28;20041;-67
2022/09/13 01:10:53;;;;;;;6.82;4.38;;;22.40;70.80;;;;;;5074493;28;20040;-67
2022/09/13 01:13:20;;;;;;;7.72;4.30;;;22.40;70.80;;;;;;5056187;28;20037;-67
2022/09/13 01:15:46;;;;;;;6.93;4.00;;;22.40;70.80;;;;;;5038766;28;20050;-67
2022/09/13 01:18:15;;;;;;;7.30;4.43;;;22.40;70.80;;;;;;5074235;28;20041;-67
2022/09/13 01:21:29;;;;;;;5.57;3.55;;;22.40;70.80;;;;;;5060490;28;20156;-67
2022/09/13 01:24:24;;;;;;;5.53;3.65;;;22.50;70.80;;;;;;5059300;28;20044;-68
2022/09/13 01:26:49;;;;;;;7.47;4.28;;;22.40;70.80;;;;;;5056465;28;20105;-68
2022/09/13 01:29:51;;;;;;;8.43;4.15;;;22.40;70.80;;;;;;5072860;28;20135;-68
2022/09/13 01:32:41;;;;;;;6.63;4.03;;;22.40;70.70;;;;;;5058903;28;20171;-68
2022/09/13 01:35:33;;;;;;;6.93;4.38;;;22.40;70.80;;;;;;5074111;28;20040;-68
2022/09/13 01:38:47;;;;;;;6.75;4.10;;;22.40;70.70;;;;;;5057250;28;20715;-67
2022/09/13 01:41:50;;;;;;;5.35;3.70;;;22.40;70.60;;;;;;5064941;28;20049;-68
2022/09/13 01:44:33;;;;;;;7.13;4.30;;;22.40;70.70;;;;;;5072690;28;20044;-68
2022/09/13 01:47:05;;;;;;;6.13;4.20;;;22.40;70.70;;;;;;5056005;28;20045;-68
2022/09/13 01:49:40;;;;;;;7.80;4.25;;;22.40;70.80;;;;;;5073919;28;20040;-68
2022/09/13 01:52:13;;;;;;;9.00;4.88;;;22.40;70.70;;;;;;5073748;28;20037;-67
2022/09/13 01:54:57;;;;;;;7.20;4.10;;;22.40;70.70;;;;;;5040547;28;20059;-68
2022/09/13 01:57:32;;;;;;;6.68;4.10;;;22.40;70.80;;;;;;5054990;28;20050;-66
2022/09/13 02:00:12;;;;;;;6.78;3.83;;;22.40;70.80;;;;;;5055490;28;20090;-66
2022/09/13 02:03:03;;;;;;;6.72;3.83;;;22.40;70.70;;;;;;5039632;28;20098;-66
2022/09/13 02:06:09;;;;;;;6.20;4.05;;;22.40;70.70;;;;;;5054423;28;20075;-67
2022/09/13 02:08:55;;;;;;;6.18;3.20;;;22.40;70.70;;;;;;4956332;28;20059;-67
2022/09/13 02:11:21;;;;;;;6.05;3.70;;;22.40;70.80;;;;;;4940634;28;20077;-66
2022/09/13 02:14:14;;;;;;;6.78;3.95;;;22.30;70.70;;;;;;5017852;28;20504;-67
2022/09/13 02:16:59;;;;;;;5.68;3.75;;;22.30;70.70;;;;;;5039235;28;20089;-67
2022/09/13 02:19:38;;;;;;;6.88;3.90;;;22.30;70.70;;;;;;5057431;28;20045;-68
2022/09/13 02:22:05;;;;;;;6.53;4.00;;;22.40;70.80;;;;;;5072565;28;20449;-68
2022/09/13 02:24:36;;;;;;;6.22;4.10;;;22.30;70.80;;;;;;5038231;28;20131;-68
2022/09/13 02:27:09;;;;;;;7.00;3.70;;;22.30;70.80;;;;;;5038219;28;20052;-68
2022/09/13 02:29:39;;;;;;;6.28;4.00;;;22.30;70.80;;;;;;5073091;28;20056;-67
2022/09/13 02:32:09;;;;;;;7.35;3.67;;;22.30;70.80;;;;;;5037595;28;20382;-68
2022/09/13 02:35:01;;;;;;;6.30;3.65;;;22.30;70.80;;;;;;5055303;28;20079;-67
2022/09/13 02:37:27;;;;;;;7.05;4.50;;;22.30;70.70;;;;;;5072860;28;20127;-68
2022/09/13 02:39:56;;;;;;;6.43;4.00;;;22.30;70.80;;;;;;5037761;28;20452;-68
2022/09/13 02:42:43;;;;;;;6.32;3.70;;;22.30;70.80;;;;;;5055140;28;20041;-68
2022/09/13 02:45:08;;;;;;;5.45;3.90;;;22.30;70.70;;;;;;5054298;28;20422;-68
2022/09/13 02:47:56;;;;;;;5.82;3.72;;;22.30;70.70;;;;;;5037531;28;20041;-68
2022/09/13 02:50:29;;;;;;;4.95;3.50;;;22.30;70.70;;;;;;5072226;28;20519;-68
2022/09/13 02:53:03;;;;;;;6.28;3.70;;;22.30;70.80;;;;;;5053801;28;20040;-67
2022/09/13 02:55:38;;;;;;;7.45;4.03;;;22.30;70.80;;;;;;5072467;28;20044;-67
2022/09/13 02:58:19;;;;;;;5.90;3.78;;;22.30;70.80;;;;;;5072649;28;20044;-67
2022/09/13 03:00:45;;;;;;;6.35;3.70;;;22.30;70.70;;;;;;5053893;28;20033;-68
2022/09/13 03:03:11;;;;;;;6.78;4.10;;;22.30;70.70;;;;;;5071922;28;20048;-68
2022/09/13 03:05:37;;;;;;;6.60;3.50;;;22.30;70.80;;;;;;5054754;28;20058;-68
2022/09/13 03:08:06;;;;;;;6.40;3.80;;;22.30;70.80;;;;;;5053418;28;20045;-66
2022/09/13 03:10:48;;;;;;;5.93;3.92;;;22.30;70.80;;;;;;5054455;28;20044;-66
2022/09/13 03:13:26;;;;;;;7.50;3.80;;;22.30;70.70;;;;;;5056076;28;20472;-67
2022/09/13 03:16:07;;;;;;;5.07;3.42;;;22.30;70.80;;;;;;5071390;28;20092;-67
2022/09/13 03:18:48;;;;;;;6.57;3.70;;;22.30;70.70;;;;;;5055505;28;20037;-66
2022/09/13 03:21:27;;;;;;;4.65;3.47;;;22.20;70.70;;;;;;5071254;28;20052;-67
2022/09/13 03:24:31;;;;;;;5.88;3.42;;;22.30;70.70;;;;;;5055234;28;20036;-67
2022/09/13 03:27:15;;;;;;;5.50;3.80;;;22.20;70.70;;;;;;5016709;28;20057;-66
2022/09/13 03:30:05;;;;;;;6.55;4.13;;;22.20;70.70;;;;;;5054827;28;20094;-67
2022/09/13 03:33:03;;;;;;;5.28;3.47;;;22.20;70.70;;;;;;5072102;28;20049;-67
2022/09/13 03:35:33;;;;;;;5.05;3.55;;;22.20;70.70;;;;;;5039186;28;20129;-67
2022/09/13 03:38:17;;;;;;;5.90;3.85;;;22.20;70.70;;;;;;5054020;28;20496;-67
2022/09/13 03:40:48;;;;;;;5.88;3.40;;;22.20;70.70;;;;;;5071974;28;20052;-67
2022/09/13 03:43:18;;;;;;;6.80;3.60;;;22.20;70.70;;;;;;5071251;28;20053;-67
2022/09/13 03:45:49;;;;;;;5.55;3.40;;;22.20;70.70;;;;;;5054049;28;20450;-67
2022/09/13 03:48:14;;;;;;;5.22;3.22;;;22.20;70.70;;;;;;5037489;28;20045;-67
2022/09/13 03:50:40;;;;;;;5.35;3.28;;;22.20;70.70;;;;;;5036815;28;20041;-67
2022/09/13 03:53:10;;;;;;;4.68;3.28;;;22.20;70.80;;;;;;5037515;28;20141;-66
2022/09/13 03:55:42;;;;;;;5.75;3.63;;;22.20;70.70;;;;;;5071976;28;20068;-67
2022/09/13 03:58:12;;;;;;;6.38;3.67;;;22.20;70.80;;;;;;5053407;28;20036;-66
2022/09/13 04:00:40;;;;;;;6.78;3.58;;;22.20;70.70;;;;;;5054587;28;20045;-66
2022/09/13 04:03:05;;;;;;;5.47;3.25;;;22.20;70.70;;;;;;5055893;28;20041;-66
2022/09/13 04:05:32;;;;;;;6.43;3.90;;;22.20;70.70;;;;;;5053967;28;20041;-66
2022/09/13 04:07:57;;;;;;;5.10;3.38;;;22.20;70.70;;;;;;5055333;28;20125;-66
2022/09/13 04:10:26;;;;;;;;;;;22.20;70.70;;;;;;5054748;28;20504;-67
2022/09/13 04:12:53;;;;;;;5.55;3.38;;;22.20;70.60;;;;;;5055505;28;19927;-67
2022/09/13 04:15:19;;;;;;;6.13;3.58;;;22.20;70.70;;;;;;5055576;28;20048;-67
2022/09/13 04:17:44;;;;;;;5.05;3.30;;;22.20;70.70;;;;;;5054852;28;20040;-67
2022/09/13 04:20:10;;;;;;;6.53;3.58;;;22.20;70.70;;;;;;5037077;28;20129;-66
2022/09/13 04:22:35;;;;;;;4.80;3.50;;;22.20;70.70;;;;;;5055448;28;20066;-67
2022/09/13 04:25:01;;;;;;;6.00;3.35;;;22.20;70.70;;;;;;5054748;28;20112;-67
2022/09/13 04:27:26;;;;;;;4.68;3.10;;;22.20;70.70;;;;;;5055306;28;20515;-67
2022/09/13 04:29:52;;;;;;;6.38;3.20;;;22.20;70.70;;;;;;5055113;28;20132;-67
2022/09/13 04:32:20;;;;;;;6.40;3.63;;;22.20;70.70;;;;;;5054288;28;20049;-66
2022/09/13 04:34:46;;;;;;;5.03;3.33;;;22.20;70.70;;;;;;5055310;28;20045;-67
2022/09/13 04:37:12;;;;;;;6.05;3.65;;;22.20;70.70;;;;;;5055061;28;20124;-67
2022/09/13 04:39:37;;;;;;;5.60;3.35;;;22.20;70.70;;;;;;5054452;28;20493;-67
2022/09/13 04:42:03;;;;;;;4.43;3.00;;;22.20;70.70;;;;;;5055201;28;20037;-67
2022/09/13 04:44:29;;;;;;;3.88;2.60;;;22.20;70.70;;;;;;5055248;28;20072;-67
2022/09/13 04:46:54;;;;;;;4.57;3.00;;;22.20;70.70;;;;;;5036372;28;20052;-65
2022/09/13 04:49:26;;;;;;;5.20;3.42;;;22.20;70.70;;;;;;5054527;28;20045;-67
2022/09/13 04:51:55;;;;;;;5.05;3.35;;;22.20;70.70;;;;;;5036968;28;20044;-67
2022/09/13 04:54:21;;;;;;;5.25;2.97;;;22.10;70.70;;;;;;5035896;28;20179;-67
2022/09/13 04:56:46;;;;;;;5.75;3.30;;;22.10;70.70;;;;;;5055133;28;20045;-67
2022/09/13 04:59:12;;;;;;;6.35;3.53;;;22.10;70.70;;;;;;5054717;28;20535;-67
2022/09/13 05:01:38;;;;;;;4.95;3.83;;;22.20;70.70;;;;;;5036133;28;20481;-67
2022/09/13 05:04:07;;;;;;;4.78;2.80;;;22.10;70.70;;;;;;5054451;28;20102;-67
2022/09/13 05:06:32;;;;;;;5.32;3.30;;;22.10;70.70;;;;;;5054051;28;20083;-67
2022/09/13 05:08:58;;;;;;;4.55;3.30;;;22.10;70.70;;;;;;5036677;28;20080;-67
2022/09/13 05:11:25;;;;;;;5.18;3.10;;;22.20;70.80;;;;;;5036265;28;20481;-67
2022/09/13 05:13:57;;;;;;;5.55;3.35;;;22.10;70.70;;;;;;5053812;28;20901;-67
2022/09/13 05:16:24;;;;;;;5.10;3.72;;;22.10;70.70;;;;;;5053427;28;20379;-67
2022/09/13 05:18:50;;;;;;;5.07;3.40;;;22.10;70.80;;;;;;5054245;28;20053;-66
2022/09/13 05:21:15;;;;;;;5.25;3.25;;;22.10;70.70;;;;;;5053557;28;20043;-67
2022/09/13 05:23:50;;;;;;;5.13;3.47;;;22.10;70.70;;;;;;5054550;28;20044;-67
2022/09/13 05:26:16;;;;;;;4.45;2.95;;;22.10;70.80;;;;;;5054116;28;20114;-67
2022/09/13 05:28:42;;;;;;;5.03;3.00;;;22.10;70.80;;;;;;5053351;28;20056;-67
2022/09/13 05:31:14;;;;;;;4.97;3.28;;;22.10;70.80;;;;;;5053516;28;20057;-67
2022/09/13 05:33:40;;;;;;;5.72;2.97;;;22.10;70.70;;;;;;5054294;28;20075;-67
2022/09/13 05:36:05;;;;;;;6.10;3.90;;;22.10;70.80;;;;;;5053487;28;20473;-69
2022/09/13 05:38:31;;;;;;;4.93;3.15;;;22.10;70.80;;;;;;5054399;28;20488;-67
2022/09/13 05:41:01;;;;;;;5.20;3.33;;;22.10;70.80;;;;;;5054440;28;20049;-67
2022/09/13 05:43:28;;;;;;;6.55;3.00;;;22.10;70.80;;;;;;5052970;28;20131;-67
2022/09/13 05:46:04;;;;;;;4.65;2.90;;;22.10;70.80;;;;;;5054018;28;20136;-67
2022/09/13 05:48:29;;;;;;;4.95;3.05;;;22.10;70.80;;;;;;5053985;28;20052;-67
2022/09/13 05:50:55;;;;;;;4.63;3.17;;;22.10;70.80;;;;;;5053164;28;20041;-68
2022/09/13 05:53:20;;;;;;;4.75;3.10;;;22.10;70.80;;;;;;5053849;28;20041;-67
2022/09/13 05:55:46;;;;;;;5.10;3.30;;;22.10;70.80;;;;;;5053130;28;20062;-67
2022/09/13 05:58:11;;;;;;;6.22;3.25;;;22.10;70.80;;;;;;5053182;28;20037;-67
2022/09/13 06:00:37;;;;;;;5.55;2.97;;;22.10;70.90;;;;;;5056695;28;20048;-68
2022/09/13 06:03:03;;;;;;;4.40;2.95;;;22.10;70.80;;;;;;5072959;28;20040;-68
2022/09/13 06:05:28;;;;;;;4.63;3.33;;;22.10;70.80;;;;;;5072965;28;20036;-65
2022/09/13 06:07:54;;;;;;;4.45;3.03;;;22.10;70.80;;;;;;5055795;28;20048;-67
2022/09/13 06:10:19;;;;;;;5.07;3.30;;;22.10;70.90;;;;;;5054659;28;20048;-69
2022/09/13 06:12:46;;;;;;;4.57;3.10;;;22.10;70.90;;;;;;5073110;28;20119;-68
2022/09/13 06:15:14;;;;;;;4.60;3.15;;;22.10;70.90;;;;;;5072754;28;20082;-66
2022/09/13 06:17:40;;;;;;;4.97;3.20;;;22.10;70.80;;;;;;5072385;28;20048;-65
2022/09/13 06:20:06;;;;;;;5.05;3.20;;;22.10;70.80;;;;;;5073381;28;20071;-65
2022/09/13 06:22:32;;;;;;;4.13;2.90;;;22.10;70.90;;;;;;5073895;28;20090;-68
2022/09/13 06:24:58;;;;;;;4.82;3.08;;;22.10;70.90;;;;;;5072297;28;20040;-68
2022/09/13 06:27:28;;;;;;;7.13;3.78;;;22.10;70.90;;;;;;5073133;28;20052;-67
2022/09/13 06:29:54;;;;;;;4.65;3.33;;;22.10;71.00;;;;;;5073135;28;20102;-68
2022/09/13 06:32:19;;;;;;;5.43;2.78;;;22.10;71.00;;;;;;5072323;28;20053;-68
2022/09/13 06:34:47;;;;;;;6.20;3.38;;;22.10;70.90;;;;;;5073579;28;20039;-68
2022/09/13 06:37:13;;;;;;;4.90;3.00;;;22.10;71.00;;;;;;5073058;28;20091;-68
2022/09/13 06:39:38;;;;;;;5.93;3.28;;;22.10;70.90;;;;;;5072758;28;20044;-68
2022/09/13 06:42:04;;;;;;;6.38;3.17;;;22.10;71.00;;;;;;5073086;28;20090;-68
2022/09/13 06:44:30;;;;;;;5.10;2.53;;;22.10;71.00;;;;;;5072871;28;20047;-67
2022/09/13 06:46:58;;;;;;;6.25;3.17;;;22.20;71.10;;;;;;5051400;28;20053;-66
2022/09/13 06:49:23;;;;;;;5.65;3.30;;;22.10;71.20;;;;;;5036888;28;20045;-66
2022/09/13 06:51:51;;;;;;;;;;;22.10;71.20;;;;;;5063835;28;20045;-66
2022/09/13 06:54:17;;;;;;;6.03;3.00;;;22.10;71.10;;;;;;5051406;28;19927;-64
2022/09/13 06:56:42;;;;;;;4.55;2.75;;;22.10;71.30;;;;;;5033994;28;20155;-68
2022/09/13 06:59:09;;;;;;;4.10;2.63;;;22.10;71.30;;;;;;5050481;28;20057;-69
2022/09/13 07:01:36;;;;;;;5.03;3.15;;;22.10;71.40;;;;;;5034497;28;20121;-67
2022/09/13 07:04:06;;;;;;;5.18;2.70;;;22.10;71.50;;;;;;5034829;28;20049;-68
2022/09/13 07:06:33;;;;;;;4.82;3.28;;;22.20;71.50;;;;;;5051990;28;20158;-68
2022/09/13 07:08:59;;;;;;;5.35;2.83;;;22.10;71.50;;;;;;5052135;28;20041;-68
2022/09/13 07:11:28;;;;;;;5.10;2.85;;;22.20;71.60;;;;;;5052167;28;20040;-68
2022/09/13 07:13:55;;;;;;;4.20;2.67;;;22.20;71.60;;;;;;5051635;28;20071;-68
2022/09/13 07:16:22;;;;;;;8.60;2.80;;;22.20;71.70;;;;;;5034361;28;20045;-68
2022/09/13 07:18:55;;;;;;;7.28;3.40;;;22.20;71.70;;;;;;5052199;28;20625;-68
2022/09/13 07:21:23;;;;;;;4.38;2.85;;;22.20;71.80;;;;;;5051455;28;20044;-67
2022/09/13 07:23:52;;;;;;;4.35;2.60;;;22.20;71.90;;;;;;5052149;28;20048;-68
2022/09/13 07:26:18;;;;;;;4.78;2.80;;;22.20;71.90;;;;;;5034829;28;20131;-69
2022/09/13 07:28:45;;;;;;;4.90;2.72;;;22.20;72.00;;;;;;5051432;28;20120;-68
2022/09/13 07:31:15;;;;;;;4.32;2.75;;;22.20;72.10;;;;;;5051566;28;20060;-69
2022/09/13 07:33:41;;;;;;;3.78;2.70;;;22.20;72.10;;;;;;5052192;28;20045;-69
2022/09/13 07:36:06;;;;;;;5.32;2.60;;;22.20;72.20;;;;;;5050982;28;20423;-69
2022/09/13 07:38:36;;;;;;;5.93;2.85;;;22.20;72.20;;;;;;5051848;28;20102;-69
2022/09/13 07:41:05;;;;;;;4.15;2.25;;;22.20;72.30;;;;;;5052221;28;20036;-69
2022/09/13 07:43:33;;;;;;;4.57;2.97;;;22.20;72.30;;;;;;5049679;28;20530;-67
2022/09/13 07:46:03;;;;;;;5.20;3.03;;;22.20;72.40;;;;;;5051623;28;20041;-68
2022/09/13 07:48:30;;;;;;;5.32;2.78;;;22.30;72.50;;;;;;5050602;28;20051;-68
2022/09/13 07:50:57;;;;;;;3.60;2.63;;;22.30;72.50;;;;;;5050609;28;20092;-65
2022/09/13 07:53:22;;;;;;;3.90;2.55;;;22.30;72.60;;;;;;5051414;28;20080;-66
2022/09/13 07:55:48;;;;;;;4.85;2.50;;;22.30;72.50;;;;;;5050246;28;20489;-70
2022/09/13 07:58:14;;;;;;;6.47;2.50;;;22.30;72.60;;;;;;5050674;28;20132;-67
2022/09/13 08:00:39;;;;;;;6.88;2.58;;;22.30;72.50;;;;;;5051859;28;20049;-67
2022/09/13 08:03:05;;;;;;;4.10;2.30;;;22.30;72.50;;;;;;5051058;28;20179;-68
2022/09/13 08:05:31;;;;;;;3.60;2.20;;;22.30;72.60;;;;;;5051620;28;20037;-68
2022/09/13 08:07:57;;;;;;;5.20;2.38;;;22.30;72.70;;;;;;5052040;28;20087;-68
2022/09/13 08:10:22;;;;;;;6.65;2.47;;;22.30;72.70;;;;;;5050732;28;20048;-68
2022/09/13 08:12:48;;;;;;;3.83;2.47;;;22.30;72.70;;;;;;5047165;28;20041;-67
2022/09/13 08:15:13;;;;;;;5.05;2.42;;;22.30;72.70;;;;;;5043050;28;20124;-67
2022/09/13 08:17:39;;;;;;;3.25;2.03;;;22.30;72.60;;;;;;5061084;28;20051;-66
2022/09/13 08:20:05;;;;;;;5.05;2.67;;;22.30;72.70;;;;;;5051376;28;20090;-66
2022/09/13 08:22:30;;;;;;;5.10;2.13;;;22.30;72.70;;;;;;5050187;28;20053;-68
2022/09/13 08:24:56;;;;;;;3.58;2.50;;;22.40;72.70;;;;;;5050173;28;20041;-67
2022/09/13 08:27:21;;;;;;;5.35;2.60;;;22.40;72.80;;;;;;5061180;28;20036;-66
2022/09/13 08:29:50;;;;;;;4.05;2.10;;;22.40;72.80;;;;;;5053405;28;20065;-65
2022/09/13 08:32:15;;;;;;;5.47;2.38;;;22.40;72.80;;;;;;5041441;28;20174;-66
2022/09/13 08:34:41;;;;;;;4.65;2.53;;;22.40;72.80;;;;;;5032003;28;20137;-67
2022/09/13 08:37:10;;;;;;;5.50;2.03;;;22.40;72.80;;;;;;5032901;28;20036;-69
2022/09/13 08:39:39;;;;;;;2.72;1.80;;;22.40;72.80;;;;;;5054744;28;20041;-67
2022/09/13 08:42:28;;;;;;;4.45;2.50;;;22.40;72.80;;;;;;5043299;28;20116;-68
2022/09/13 08:44:57;;;;;;;3.83;2.03;;;22.50;72.90;;;;;;5040345;28;20051;-67
2022/09/13 08:47:26;;;;;;;3.72;1.88;;;22.50;72.80;;;;;;5051427;28;20159;-67
2022/09/13 08:50:10;;;;;;;5.30;2.33;;;22.50;72.90;;;;;;5052094;28;20037;-67
2022/09/13 08:52:54;;;;;;;3.08;1.70;;;22.50;72.80;;;;;;5038376;28;20546;-67
2022/09/13 08:55:35;;;;;;;4.57;1.90;;;22.50;72.80;;;;;;5054729;28;20052;-67
2022/09/13 08:58:04;;;;;;;4.30;1.90;;;22.50;72.80;;;;;;5037105;28;20481;-65
2022/09/13 09:00:42;;;;;;;3.20;1.67;;;22.50;72.70;;;;;;5053765;28;20048;-65
2022/09/13 09:03:23;;;;;;;;;;;22.60;72.80;;;;;;5022346;28;20044;-66
2022/09/13 09:05:49;;;;;;;3.08;2.10;;;22.60;72.80;;;;;;5053850;28;19924;-66
2022/09/13 09:08:37;;;;;;;3.60;1.80;;;22.60;72.80;;;;;;5036648;28;20543;-69
2022/09/13 09:11:07;;;;;;;4.35;1.70;;;22.60;72.80;;;;;;5038920;28;20045;-68
2022/09/13 09:13:52;;;;;;;4.75;1.95;;;22.60;72.80;;;;;;5035788;28;20045;-67
2022/09/13 09:16:56;;;;;;;4.05;1.50;;;22.70;72.70;;;;;;5036263;28;20064;-67
2022/09/13 09:19:27;;;;;;;5.20;1.80;;;22.70;72.70;;;;;;5053088;28;20048;-67
2022/09/13 09:21:52;;;;;;;2.28;1.50;;;22.70;72.70;;;;;;5020196;28;20037;-68
2022/09/13 09:24:21;;;;;;;4.47;1.80;;;22.70;72.70;;;;;;5036592;28;20539;-67
2022/09/13 09:26:46;;;;;;;4.03;1.55;;;22.70;72.60;;;;;;5053735;28;20147;-67
2022/09/13 09:29:24;;;;;;;3.72;1.70;;;22.70;72.50;;;;;;5053892;28;20040;-67
2022/09/13 09:32:02;;;;;;;5.32;1.70;;;22.70;72.50;;;;;;5053961;28;20055;-68
2022/09/13 09:35:04;;;;;;;5.75;1.63;;;22.70;72.70;;;;;;5035154;28;20055;-67
2022/09/13 09:37:29;;;;;;;4.53;1.70;;;22.80;72.70;;;;;;5054027;28;20061;-68
2022/09/13 09:40:03;;;;;;;3.22;1.52;;;22.80;72.70;;;;;;5054053;28;20151;-67
2022/09/13 09:42:34;;;;;;;3.72;1.90;;;22.80;72.70;;;;;;5052705;28;20548;-68
2022/09/13 09:45:00;;;;;;;4.00;1.80;;;22.80;72.70;;;;;;5020069;28;20167;-67
2022/09/13 09:47:27;;;;;;;2.90;1.40;;;22.80;72.70;;;;;;5035890;28;20094;-67
2022/09/13 09:50:09;;;;;;;2.78;1.50;;;22.80;72.60;;;;;;5053361;28;20236;-67
2022/09/13 09:52:38;;;;;;;2.70;1.25;;;22.80;72.60;;;;;;5038105;28;20056;-66
2022/09/13 09:55:17;;;;;;;3.45;1.38;;;22.80;72.50;;;;;;5053169;28;20045;-66
2022/09/13 09:58:00;;;;;;;2.85;1.20;;;22.80;72.40;;;;;;5053515;28;20079;-67
2022/09/13 10:00:31;;;;;;;6.97;1.42;;;22.90;72.40;;;;;;5052707;28;20048;-66
2022/09/13 10:03:18;;;;;;;4.20;1.50;;;22.90;72.30;;;;;;5053134;28;20086;-65
2022/09/13 10:05:47;;;;;;;4.15;1.15;;;23.00;72.40;;;;;;5053282;28;20049;-66
2022/09/13 10:08:27;;;;;;;3.30;1.42;;;23.00;72.30;;;;;;5003320;28;20056;-65
2022/09/13 10:10:54;;;;;;;4.07;1.50;;;23.00;72.20;;;;;;5018368;28;20055;-67
2022/09/13 10:13:20;;;;;;;3.65;1.38;;;22.90;72.20;;;;;;5035724;28;20041;-65
2022/09/13 10:15:53;;;;;;;4.10;1.25;;;22.90;72.20;;;;;;5035538;28;20082;-64
2022/09/13 10:18:20;;;;;;;6.05;1.35;;;23.00;72.30;;;;;;5057351;28;20142;-66
2022/09/13 10:21:04;;;;;;;2.80;1.27;;;22.90;72.20;;;;;;5040654;28;20489;-66
2022/09/13 10:23:31;;;;;;;4.25;1.27;;;22.90;72.30;;;;;;5034163;28;20045;-66
2022/09/13 10:25:57;;;;;;;3.55;1.25;;;22.90;72.30;;;;;;5053349;28;20044;-66
2022/09/13 10:28:23;;;;;;;3.13;1.30;;;23.00;72.30;;;;;;5052625;28;20133;-66
2022/09/13 10:30:53;;;;;;;4.88;1.58;;;23.00;72.20;;;;;;5051896;28;20056;-66
2022/09/13 10:33:37;;;;;;;2.53;1.10;;;23.00;72.20;;;;;;5052820;28;20049;-68
2022/09/13 10:36:17;;;;;;;3.25;1.50;;;23.00;72.00;;;;;;5018884;28;20060;-68
2022/09/13 10:38:50;;;;;;;2.70;1.23;;;23.00;72.10;;;;;;5018032;28;20041;-67
2022/09/13 10:41:21;;;;;;;3.92;0.98;;;23.00;72.00;;;;;;5017789;28;20174;-67
2022/09/13 10:43:46;;;;;;;4.03;1.13;;;23.00;71.90;;;;;;5034606;28;20086;-68
2022/09/13 10:46:12;;;;;;;4.03;1.30;;;23.00;71.80;;;;;;5034324;28;20041;-68
2022/09/13 10:48:46;;;;;;;2.15;1.00;;;23.00;71.80;;;;;;5018830;28;20041;-67
2022/09/13 10:51:27;;;;;;;5.88;1.23;;;23.10;71.70;;;;;;5051708;28;20400;-67
2022/09/13 10:54:15;;;;;;;4.50;1.40;;;23.10;71.70;;;;;;5053107;28;20071;-67
2022/09/13 10:56:42;;;;;;;3.80;1.33;;;23.10;71.60;;;;;;5035195;28;20056;-67
2022/09/13 10:59:30;;;;;;;3.47;1.20;;;23.20;71.60;;;;;;5051908;28;20060;-67
2022/09/13 11:02:08;;;;;;;;;;;23.20;71.60;;;;;;5053561;28;20076;-67
2022/09/13 11:05:00;;;;;;;4.32;1.98;;;23.10;71.40;;;;;;5035816;28;19921;-67
2022/09/13 11:07:44;;;;;;;3.25;1.38;;;23.20;71.50;;;;;;5034481;28;20107;-67
2022/09/13 11:10:19;;;;;;;4.43;1.02;;;23.20;71.50;;;;;;5052593;28;20439;-67
2022/09/13 11:13:13;;;;;;;3.50;1.10;;;23.20;71.50;;;;;;5001126;28;20503;-67
2022/09/13 11:15:48;;;;;;;5.20;1.02;;;23.10;71.10;;;;;;5039237;28;20044;-67
2022/09/13 11:18:23;;;;;;;2.38;1.10;;;23.20;71.00;;;;;;5063033;28;20055;-67
2022/09/13 11:20:56;;;;;;;3.13;1.00;;;23.20;70.70;;;;;;5044040;28;20099;-67
2022/09/13 11:23:22;;;;;;;5.90;1.00;;;23.20;70.60;;;;;;5043988;28;20362;-67
2022/09/13 11:26:07;;;;;;;3.30;0.90;;;23.20;70.20;;;;;;5044297;28;20055;-66
2022/09/13 11:29:15;;;;;;;4.75;0.80;;;23.20;70.00;;;;;;5050921;28;20072;-66
2022/09/13 11:31:54;;;;;;;2.20;1.00;;;23.20;69.60;;;;;;5023574;28;20053;-66
2022/09/13 11:34:40;;;;;;;4.60;1.40;;;23.20;69.50;;;;;;5035455;28;20078;-65
2022/09/13 11:37:22;;;;;;;3.85;1.10;;;23.20;69.60;;;;;;5051007;28;20053;-61
2022/09/13 11:40:09;;;;;;;5.88;1.50;;;23.20;69.60;;;;;;5033564;28;20048;-63
2022/09/13 11:42:47;;;;;;;5.73;1.40;;;23.20;69.50;;;;;;5058038;28;20040;-66
2022/09/13 11:45:21;;;;;;;6.93;1.73;;;23.20;69.50;;;;;;5045264;28;20381;-67
2022/09/13 11:47:58;;;;;;;5.95;1.70;;;23.20;69.60;;;;;;5011414;28;20831;-66
2022/09/13 11:51:01;;;;;;;5.82;1.67;;;23.20;69.60;;;;;;5060959;28;20116;-66
2022/09/13 11:53:52;;;;;;;4.82;1.80;;;23.30;69.90;;;;;;5061267;28;20130;-66
2022/09/13 11:56:31;;;;;;;7.40;1.88;;;23.30;69.80;;;;;;5061164;28;20427;-66
2022/09/13 11:59:21;;;;;;;6.35;2.00;;;23.30;69.90;;;;;;5042866;28;20037;-66
2022/09/13 12:02:02;;;;;;;9.50;1.88;;;23.30;70.00;;;;;;5033503;28;20045;-66
2022/09/13 12:04:33;;;;;;;8.40;1.92;;;23.30;70.00;;;;;;5001289;28;20049;-63
2022/09/13 12:07:00;;;;;;;7.15;1.83;;;23.30;70.00;;;;;;5017173;28;20045;-67
2022/09/13 12:09:37;;;;;;;6.90;2.00;;;23.30;70.00;;;;;;5016391;28;20060;-66
2022/09/13 12:12:09;;;;;;;5.85;1.60;;;23.30;70.00;;;;;;5021750;28;20045;-66
2022/09/13 12:15:10;;;;;;;8.50;2.22;;;23.40;70.00;;;;;;5034612;28;20041;-65
2022/09/13 12:17:39;;;;;;;5.78;2.00;;;23.40;70.00;;;;;;5053570;28;20087;-65
2022/09/13 12:20:10;;;;;;;4.40;1.60;;;23.40;69.90;;;;;;5042583;28;20086;-65
2022/09/13 12:22:39;;;;;;;6.72;1.75;;;23.40;69.80;;;;;;5021178;28;20036;-65
2022/09/13 12:25:23;;;;;;;6.10;1.55;;;23.40;69.70;;;;;;5039393;28;20049;-65
2022/09/13 12:28:12;;;;;;;7.65;1.65;;;23.40;69.50;;;;;;5058483;28;20037;-64
2022/09/13 12:31:03;;;;;;;5.72;1.90;;;23.40;69.40;;;;;;5039155;28;20132;-65
2022/09/13 12:33:28;;;;;;;7.05;1.58;;;23.40;69.40;;;;;;5074922;28;20076;-63
2022/09/13 12:36:27;;;;;;;6.47;1.75;;;23.40;69.40;;;;;;5024302;28;20141;-65
2022/09/13 12:39:09;;;;;;;6.72;1.52;;;23.40;69.40;;;;;;4988078;28;20113;-65
2022/09/13 12:42:03;;;;;;;5.43;1.50;;;23.40;69.40;;;;;;5057018;28;20571;-65
2022/09/13 12:44:53;;;;;;;4.65;1.45;;;23.40;69.40;;;;;;5073478;28;20044;-64
2022/09/13 12:47:28;;;;;;;6.32;1.60;;;23.40;69.50;;;;;;5059824;28;20045;-64
2022/09/13 12:50:04;;;;;;;3.65;1.17;;;23.40;69.50;;;;;;5056794;28;20102;-64
2022/09/13 12:52:48;;;;;;;5.07;1.55;;;23.40;69.50;;;;;;5056215;28;20076;-64
2022/09/13 12:55:20;;;;;;;5.45;1.52;;;23.40;69.40;;;;;;5024977;28;20052;-64
2022/09/13 12:58:24;;;;;;;6.72;1.30;;;23.50;69.50;;;;;;5056079;28;20510;-64
2022/09/13 13:01:08;;;;;;;8.38;1.83;;;23.50;69.50;;;;;;5074369;28;20045;-66
2022/09/13 13:03:39;;;;;;;5.68;1.55;;;23.50;69.60;;;;;;5056801;28;20052;-66
2022/09/13 13:06:29;;;;;;;3.65;1.63;;;23.60;69.50;;;;;;5040395;28;20048;-65
2022/09/13 13:08:56;;;;;;;12.68;1.38;;;23.50;69.50;;;;;;5041876;28;20114;-65
2022/09/13 13:11:43;;;;;;;5.43;1.60;;;23.60;69.50;;;;;;5039786;28;20045;-68
2022/09/13 13:14:28;;;;;;;5.93;1.58;;;23.60;69.30;;;;;;5038335;28;20085;-65
2022/09/13 13:17:19;;;;;;;5.18;1.42;;;23.70;69.20;;;;;;5057692;28;20048;-66
2022/09/13 13:19:45;;;;;;;4.00;0.90;;;23.70;69.10;;;;;;5059834;28;20051;-66